sensor_id;sensor_type;location;lat;lon;timestamp;P1;durP1;ratioP1;P2;durP2;ratioP2
73675;SDS011;61975;48.660;10.164;2023-07-29T00:01:48;3.87;;;1.30;;
73675;SDS011;61975;48.660;10.164;2023-07-29T00:04:14;3.83;;;1.17;;
73675;SDS011;61975;48.660;10.164;2023-07-29T00:06:39;3.57;;;1.23;;
73675;SDS011;61975;48.660;10.164;2023-07-29T00:09:05;2.60;;;1.00;;
73675;SDS011;61975;48.660;10.164;2023-07-29T00:11:30;4.00;;;1.20;;
73675;SDS011;61975;48.660;10.164;2023-07-29T00:13:58;3.85;;;1.10;;
73675;SDS011;61975;48.660;10.164;2023-07-29T00:16:24;3.07;;;1.03;;
73675;SDS011;61975;48.660;10.164;2023-07-29T00:18:49;3.43;;;1.40;;
73675;SDS011;61975;48.660;10.164;2023-07-29T00:21:15;3.87;;;1.20;;
73675;SDS011;61975;48.660;10.164;2023-07-29T00:23:40;3.13;;;1.10;;
73675;SDS011;61975;48.660;10.164;2023-07-29T00:26:06;4.40;;;1.50;;
73675;SDS011;61975;48.660;10.164;2023-07-29T00:28:31;3.10;;;1.27;;
73675;SDS011;61975;48.660;10.164;2023-07-29T00:30:56;2.80;;;1.20;;
73675;SDS011;61975;48.660;10.164;2023-07-29T00:33:22;3.60;;;1.10;;
73675;SDS011;61975;48.660;10.164;2023-07-29T00:35:47;4.13;;;1.00;;
73675;SDS011;61975;48.660;10.164;2023-07-29T00:38:13;4.57;;;1.50;;
73675;SDS011;61975;48.660;10.164;2023-07-29T00:40:38;4.37;;;1.37;;
73675;SDS011;61975;48.660;10.164;2023-07-29T00:43:04;3.83;;;1.40;;
73675;SDS011;61975;48.660;10.164;2023-07-29T00:45:29;3.83;;;1.17;;
73675;SDS011;61975;48.660;10.164;2023-07-29T00:47:56;4.70;;;1.42;;
73675;SDS011;61975;48.660;10.164;2023-07-29T00:50:22;3.83;;;1.30;;
73675;SDS011;61975;48.660;10.164;2023-07-29T00:52:48;3.58;;;1.30;;
73675;SDS011;61975;48.660;10.164;2023-07-29T00:55:14;2.80;;;1.08;;
73675;SDS011;61975;48.660;10.164;2023-07-29T00:57:39;3.07;;;1.17;;
73675;SDS011;61975;48.660;10.164;2023-07-29T01:00:07;3.20;;;1.20;;
73675;SDS011;61975;48.660;10.164;2023-07-29T01:02:33;3.10;;;1.30;;
73675;SDS011;61975;48.660;10.164;2023-07-29T01:05:00;3.33;;;1.10;;
73675;SDS011;61975;48.660;10.164;2023-07-29T01:07:44;2.83;;;1.05;;
73675;SDS011;61975;48.660;10.164;2023-07-29T01:10:23;3.60;;;1.10;;
73675;SDS011;61975;48.660;10.164;2023-07-29T01:12:54;3.13;;;1.27;;
73675;SDS011;61975;48.660;10.164;2023-07-29T01:15:31;3.00;;;1.13;;
73675;SDS011;61975;48.660;10.164;2023-07-29T01:18:05;3.95;;;1.20;;
73675;SDS011;61975;48.660;10.164;2023-07-29T01:20:33;2.80;;;1.10;;
73675;SDS011;61975;48.660;10.164;2023-07-29T01:23:02;2.90;;;1.10;;
73675;SDS011;61975;48.660;10.164;2023-07-29T01:25:27;3.60;;;1.30;;
73675;SDS011;61975;48.660;10.164;2023-07-29T01:27:53;2.70;;;1.10;;
73675;SDS011;61975;48.660;10.164;2023-07-29T01:30:22;2.90;;;1.23;;
73675;SDS011;61975;48.660;10.164;2023-07-29T01:35:33;5.45;;;1.60;;
73675;SDS011;61975;48.660;10.164;2023-07-29T01:38:35;5.03;;;1.50;;
73675;SDS011;61975;48.660;10.164;2023-07-29T01:41:03;3.13;;;1.10;;
73675;SDS011;61975;48.660;10.164;2023-07-29T01:43:30;3.93;;;1.40;;
73675;SDS011;61975;48.660;10.164;2023-07-29T01:45:56;4.00;;;1.40;;
73675;SDS011;61975;48.660;10.164;2023-07-29T01:48:22;3.45;;;1.35;;
73675;SDS011;61975;48.660;10.164;2023-07-29T01:50:47;3.10;;;1.23;;
73675;SDS011;61975;48.660;10.164;2023-07-29T01:53:13;4.43;;;1.20;;
73675;SDS011;61975;48.660;10.164;2023-07-29T01:55:38;2.80;;;1.13;;
73675;SDS011;61975;48.660;10.164;2023-07-29T01:58:04;4.40;;;1.20;;
73675;SDS011;61975;48.660;10.164;2023-07-29T02:00:30;2.90;;;1.30;;
73675;SDS011;61975;48.660;10.164;2023-07-29T02:02:55;3.33;;;1.27;;
73675;SDS011;61975;48.660;10.164;2023-07-29T02:05:20;3.83;;;1.63;;
73675;SDS011;61975;48.660;10.164;2023-07-29T02:07:46;3.37;;;1.67;;
73675;SDS011;61975;48.660;10.164;2023-07-29T02:10:11;3.27;;;1.50;;
73675;SDS011;61975;48.660;10.164;2023-07-29T02:12:36;3.42;;;1.60;;
73675;SDS011;61975;48.660;10.164;2023-07-29T02:15:02;5.43;;;1.80;;
73675;SDS011;61975;48.660;10.164;2023-07-29T02:17:28;4.67;;;1.90;;
73675;SDS011;61975;48.660;10.164;2023-07-29T02:19:53;4.38;;;2.10;;
73675;SDS011;61975;48.660;10.164;2023-07-29T02:22:19;3.93;;;1.70;;
73675;SDS011;61975;48.660;10.164;2023-07-29T02:24:44;4.17;;;1.70;;
73675;SDS011;61975;48.660;10.164;2023-07-29T02:27:10;4.07;;;1.80;;
73675;SDS011;61975;48.660;10.164;2023-07-29T02:29:36;4.22;;;2.03;;
73675;SDS011;61975;48.660;10.164;2023-07-29T02:32:01;5.30;;;2.50;;
73675;SDS011;61975;48.660;10.164;2023-07-29T02:34:28;4.93;;;2.20;;
73675;SDS011;61975;48.660;10.164;2023-07-29T02:36:56;5.05;;;2.22;;
73675;SDS011;61975;48.660;10.164;2023-07-29T02:39:22;4.93;;;2.00;;
73675;SDS011;61975;48.660;10.164;2023-07-29T02:41:48;4.93;;;2.40;;
73675;SDS011;61975;48.660;10.164;2023-07-29T02:44:13;5.27;;;2.50;;
73675;SDS011;61975;48.660;10.164;2023-07-29T02:46:40;5.03;;;2.30;;
73675;SDS011;61975;48.660;10.164;2023-07-29T02:49:05;5.20;;;2.57;;
73675;SDS011;61975;48.660;10.164;2023-07-29T02:51:30;5.13;;;2.20;;
73675;SDS011;61975;48.660;10.164;2023-07-29T02:53:56;5.70;;;2.50;;
73675;SDS011;61975;48.660;10.164;2023-07-29T02:56:21;5.90;;;2.47;;
73675;SDS011;61975;48.660;10.164;2023-07-29T02:58:47;5.43;;;2.53;;
73675;SDS011;61975;48.660;10.164;2023-07-29T03:01:12;4.97;;;2.33;;
73675;SDS011;61975;48.660;10.164;2023-07-29T03:03:39;6.27;;;2.70;;
73675;SDS011;61975;48.660;10.164;2023-07-29T03:06:05;4.88;;;2.60;;
73675;SDS011;61975;48.660;10.164;2023-07-29T03:08:33;6.47;;;3.28;;
73675;SDS011;61975;48.660;10.164;2023-07-29T03:11:05;6.77;;;3.10;;
73675;SDS011;61975;48.660;10.164;2023-07-29T03:13:32;7.45;;;3.08;;
73675;SDS011;61975;48.660;10.164;2023-07-29T03:16:04;6.55;;;3.45;;
73675;SDS011;61975;48.660;10.164;2023-07-29T03:18:31;6.40;;;3.53;;
73675;SDS011;61975;48.660;10.164;2023-07-29T03:20:56;8.00;;;3.53;;
73675;SDS011;61975;48.660;10.164;2023-07-29T03:23:21;7.90;;;3.87;;
73675;SDS011;61975;48.660;10.164;2023-07-29T03:25:50;9.63;;;3.80;;
73675;SDS011;61975;48.660;10.164;2023-07-29T03:28:21;7.75;;;3.65;;
73675;SDS011;61975;48.660;10.164;2023-07-29T03:30:47;7.38;;;3.72;;
73675;SDS011;61975;48.660;10.164;2023-07-29T03:33:13;6.50;;;3.70;;
73675;SDS011;61975;48.660;10.164;2023-07-29T03:35:38;5.83;;;3.37;;
73675;SDS011;61975;48.660;10.164;2023-07-29T03:38:03;6.43;;;3.10;;
73675;SDS011;61975;48.660;10.164;2023-07-29T03:40:29;6.67;;;3.20;;
73675;SDS011;61975;48.660;10.164;2023-07-29T03:42:54;7.87;;;3.40;;
73675;SDS011;61975;48.660;10.164;2023-07-29T03:45:20;5.78;;;3.13;;
73675;SDS011;61975;48.660;10.164;2023-07-29T03:47:45;6.20;;;3.47;;
73675;SDS011;61975;48.660;10.164;2023-07-29T03:50:10;7.57;;;3.23;;
73675;SDS011;61975;48.660;10.164;2023-07-29T03:52:36;6.80;;;3.43;;
73675;SDS011;61975;48.660;10.164;2023-07-29T03:55:01;5.97;;;3.40;;
73675;SDS011;61975;48.660;10.164;2023-07-29T03:57:27;6.38;;;3.25;;
73675;SDS011;61975;48.660;10.164;2023-07-29T03:59:54;8.27;;;3.40;;
73675;SDS011;61975;48.660;10.164;2023-07-29T04:02:19;19.20;;;4.10;;
73675;SDS011;61975;48.660;10.164;2023-07-29T04:04:44;6.37;;;3.20;;
73675;SDS011;61975;48.660;10.164;2023-07-29T04:07:12;8.88;;;3.13;;
73675;SDS011;61975;48.660;10.164;2023-07-29T04:09:38;22.13;;;3.70;;
73675;SDS011;61975;48.660;10.164;2023-07-29T04:12:03;7.70;;;3.07;;
73675;SDS011;61975;48.660;10.164;2023-07-29T04:14:29;8.95;;;3.33;;
73675;SDS011;61975;48.660;10.164;2023-07-29T04:16:54;7.73;;;2.93;;
73675;SDS011;61975;48.660;10.164;2023-07-29T04:19:19;12.77;;;3.40;;
73675;SDS011;61975;48.660;10.164;2023-07-29T04:21:45;6.57;;;3.30;;
73675;SDS011;61975;48.660;10.164;2023-07-29T04:24:11;8.65;;;3.50;;
73675;SDS011;61975;48.660;10.164;2023-07-29T04:26:36;6.97;;;3.40;;
73675;SDS011;61975;48.660;10.164;2023-07-29T04:29:04;7.18;;;3.90;;
73675;SDS011;61975;48.660;10.164;2023-07-29T04:31:29;6.97;;;3.57;;
73675;SDS011;61975;48.660;10.164;2023-07-29T04:33:54;6.90;;;3.33;;
73675;SDS011;61975;48.660;10.164;2023-07-29T04:36:20;7.63;;;3.57;;
73675;SDS011;61975;48.660;10.164;2023-07-29T04:38:45;10.23;;;3.97;;
73675;SDS011;61975;48.660;10.164;2023-07-29T04:41:10;7.50;;;3.80;;
73675;SDS011;61975;48.660;10.164;2023-07-29T04:43:36;7.80;;;3.87;;
73675;SDS011;61975;48.660;10.164;2023-07-29T04:46:01;7.70;;;3.93;;
73675;SDS011;61975;48.660;10.164;2023-07-29T04:48:27;9.47;;;4.40;;
73675;SDS011;61975;48.660;10.164;2023-07-29T04:50:52;8.48;;;4.60;;
73675;SDS011;61975;48.660;10.164;2023-07-29T04:53:17;9.50;;;4.70;;
73675;SDS011;61975;48.660;10.164;2023-07-29T04:55:43;8.10;;;4.27;;
73675;SDS011;61975;48.660;10.164;2023-07-29T04:58:09;9.30;;;4.77;;
73675;SDS011;61975;48.660;10.164;2023-07-29T05:00:35;8.73;;;4.80;;
73675;SDS011;61975;48.660;10.164;2023-07-29T05:03:01;9.63;;;4.75;;
73675;SDS011;61975;48.660;10.164;2023-07-29T05:05:26;8.17;;;4.33;;
73675;SDS011;61975;48.660;10.164;2023-07-29T05:07:52;9.97;;;4.90;;
73675;SDS011;61975;48.660;10.164;2023-07-29T05:10:17;11.50;;;5.10;;
73675;SDS011;61975;48.660;10.164;2023-07-29T05:12:43;9.77;;;5.27;;
73675;SDS011;61975;48.660;10.164;2023-07-29T05:15:08;9.60;;;4.87;;
73675;SDS011;61975;48.660;10.164;2023-07-29T05:17:34;10.88;;;5.43;;
73675;SDS011;61975;48.660;10.164;2023-07-29T05:20:00;10.70;;;5.03;;
73675;SDS011;61975;48.660;10.164;2023-07-29T05:22:25;11.00;;;5.50;;
73675;SDS011;61975;48.660;10.164;2023-07-29T05:24:50;11.03;;;5.37;;
73675;SDS011;61975;48.660;10.164;2023-07-29T05:27:16;9.93;;;5.20;;
73675;SDS011;61975;48.660;10.164;2023-07-29T05:29:41;13.07;;;5.47;;
73675;SDS011;61975;48.660;10.164;2023-07-29T05:32:07;10.40;;;5.07;;
73675;SDS011;61975;48.660;10.164;2023-07-29T05:34:32;11.20;;;5.28;;
73675;SDS011;61975;48.660;10.164;2023-07-29T05:36:58;9.77;;;5.33;;
73675;SDS011;61975;48.660;10.164;2023-07-29T05:39:23;10.10;;;5.33;;
73675;SDS011;61975;48.660;10.164;2023-07-29T05:41:49;8.93;;;4.97;;
73675;SDS011;61975;48.660;10.164;2023-07-29T05:44:14;8.07;;;4.67;;
73675;SDS011;61975;48.660;10.164;2023-07-29T05:46:40;9.23;;;5.27;;
73675;SDS011;61975;48.660;10.164;2023-07-29T05:49:05;9.60;;;5.10;;
73675;SDS011;61975;48.660;10.164;2023-07-29T05:51:30;9.10;;;5.00;;
73675;SDS011;61975;48.660;10.164;2023-07-29T05:53:56;8.47;;;5.10;;
73675;SDS011;61975;48.660;10.164;2023-07-29T05:56:21;10.17;;;5.53;;
73675;SDS011;61975;48.660;10.164;2023-07-29T05:58:46;8.85;;;5.30;;
73675;SDS011;61975;48.660;10.164;2023-07-29T06:01:12;10.40;;;5.40;;
73675;SDS011;61975;48.660;10.164;2023-07-29T06:03:37;9.07;;;5.07;;
73675;SDS011;61975;48.660;10.164;2023-07-29T06:06:02;9.90;;;5.30;;
73675;SDS011;61975;48.660;10.164;2023-07-29T06:08:28;11.03;;;6.30;;
73675;SDS011;61975;48.660;10.164;2023-07-29T06:10:54;10.88;;;5.18;;
73675;SDS011;61975;48.660;10.164;2023-07-29T06:13:19;11.17;;;5.93;;
73675;SDS011;61975;48.660;10.164;2023-07-29T06:15:45;9.97;;;5.90;;
73675;SDS011;61975;48.660;10.164;2023-07-29T06:18:10;8.68;;;5.57;;
73675;SDS011;61975;48.660;10.164;2023-07-29T06:20:35;9.77;;;5.37;;
73675;SDS011;61975;48.660;10.164;2023-07-29T06:23:01;11.73;;;6.17;;
73675;SDS011;61975;48.660;10.164;2023-07-29T06:25:27;11.35;;;5.68;;
73675;SDS011;61975;48.660;10.164;2023-07-29T06:27:52;13.20;;;6.17;;
73675;SDS011;61975;48.660;10.164;2023-07-29T06:30:18;9.20;;;5.23;;
73675;SDS011;61975;48.660;10.164;2023-07-29T06:32:43;8.67;;;4.03;;
73675;SDS011;61975;48.660;10.164;2023-07-29T06:35:08;8.37;;;3.50;;
73675;SDS011;61975;48.660;10.164;2023-07-29T06:37:34;5.10;;;2.67;;
73675;SDS011;61975;48.660;10.164;2023-07-29T06:39:59;5.10;;;2.57;;
73675;SDS011;61975;48.660;10.164;2023-07-29T06:42:24;6.37;;;2.97;;
73675;SDS011;61975;48.660;10.164;2023-07-29T06:44:50;6.50;;;2.90;;
73675;SDS011;61975;48.660;10.164;2023-07-29T06:47:15;5.83;;;3.40;;
73675;SDS011;61975;48.660;10.164;2023-07-29T06:49:41;6.57;;;2.58;;
73675;SDS011;61975;48.660;10.164;2023-07-29T06:52:06;5.87;;;2.50;;
73675;SDS011;61975;48.660;10.164;2023-07-29T06:54:31;5.60;;;2.80;;
73675;SDS011;61975;48.660;10.164;2023-07-29T06:56:57;5.43;;;2.63;;
73675;SDS011;61975;48.660;10.164;2023-07-29T06:59:22;6.88;;;4.22;;
73675;SDS011;61975;48.660;10.164;2023-07-29T07:01:49;8.57;;;4.57;;
73675;SDS011;61975;48.660;10.164;2023-07-29T07:04:15;9.23;;;4.30;;
73675;SDS011;61975;48.660;10.164;2023-07-29T07:06:40;7.00;;;3.63;;
73675;SDS011;61975;48.660;10.164;2023-07-29T07:09:06;6.00;;;3.33;;
73675;SDS011;61975;48.660;10.164;2023-07-29T07:11:31;6.18;;;2.80;;
73675;SDS011;61975;48.660;10.164;2023-07-29T07:13:57;4.93;;;2.13;;
73675;SDS011;61975;48.660;10.164;2023-07-29T07:16:22;5.60;;;2.40;;
73675;SDS011;61975;48.660;10.164;2023-07-29T07:18:48;5.37;;;2.40;;
73675;SDS011;61975;48.660;10.164;2023-07-29T07:21:13;5.85;;;2.60;;
73675;SDS011;61975;48.660;10.164;2023-07-29T07:23:39;5.10;;;2.53;;
73675;SDS011;61975;48.660;10.164;2023-07-29T07:26:04;5.53;;;2.80;;
73675;SDS011;61975;48.660;10.164;2023-07-29T07:28:29;6.47;;;3.00;;
73675;SDS011;61975;48.660;10.164;2023-07-29T07:30:55;5.53;;;2.87;;
73675;SDS011;61975;48.660;10.164;2023-07-29T07:33:21;6.20;;;3.08;;
73675;SDS011;61975;48.660;10.164;2023-07-29T07:35:47;6.30;;;3.30;;
73675;SDS011;61975;48.660;10.164;2023-07-29T07:38:12;4.80;;;2.90;;
73675;SDS011;61975;48.660;10.164;2023-07-29T07:40:37;6.47;;;2.97;;
73675;SDS011;61975;48.660;10.164;2023-07-29T07:43:03;4.77;;;2.70;;
73675;SDS011;61975;48.660;10.164;2023-07-29T07:45:28;4.88;;;2.80;;
73675;SDS011;61975;48.660;10.164;2023-07-29T07:47:54;5.47;;;3.50;;
73675;SDS011;61975;48.660;10.164;2023-07-29T07:50:19;6.47;;;3.60;;
73675;SDS011;61975;48.660;10.164;2023-07-29T07:52:45;5.47;;;3.45;;
73675;SDS011;61975;48.660;10.164;2023-07-29T07:55:11;5.30;;;3.30;;
73675;SDS011;61975;48.660;10.164;2023-07-29T07:57:36;6.00;;;3.33;;
73675;SDS011;61975;48.660;10.164;2023-07-29T08:00:02;6.20;;;3.50;;
73675;SDS011;61975;48.660;10.164;2023-07-29T08:02:29;5.57;;;3.27;;
73675;SDS011;61975;48.660;10.164;2023-07-29T08:04:55;7.00;;;3.83;;
73675;SDS011;61975;48.660;10.164;2023-07-29T08:07:20;7.43;;;3.80;;
73675;SDS011;61975;48.660;10.164;2023-07-29T08:09:45;8.03;;;4.00;;
73675;SDS011;61975;48.660;10.164;2023-07-29T08:12:11;7.43;;;3.23;;
73675;SDS011;61975;48.660;10.164;2023-07-29T08:14:36;5.20;;;2.73;;
73675;SDS011;61975;48.660;10.164;2023-07-29T08:17:01;4.10;;;1.80;;
73675;SDS011;61975;48.660;10.164;2023-07-29T08:19:27;3.97;;;1.40;;
73675;SDS011;61975;48.660;10.164;2023-07-29T08:21:53;2.53;;;0.83;;
73675;SDS011;61975;48.660;10.164;2023-07-29T08:24:18;2.60;;;0.90;;
73675;SDS011;61975;48.660;10.164;2023-07-29T08:26:44;7.00;;;1.00;;
73675;SDS011;61975;48.660;10.164;2023-07-29T08:29:09;3.30;;;1.00;;
73675;SDS011;61975;48.660;10.164;2023-07-29T08:31:34;4.20;;;0.80;;
73675;SDS011;61975;48.660;10.164;2023-07-29T08:34:00;10.73;;;1.70;;
73675;SDS011;61975;48.660;10.164;2023-07-29T08:36:26;3.60;;;0.80;;
73675;SDS011;61975;48.660;10.164;2023-07-29T08:38:51;6.40;;;1.10;;
73675;SDS011;61975;48.660;10.164;2023-07-29T08:41:19;2.65;;;0.85;;
73675;SDS011;61975;48.660;10.164;2023-07-29T08:43:58;3.03;;;0.90;;
73675;SDS011;61975;48.660;10.164;2023-07-29T08:46:32;2.33;;;0.70;;
73675;SDS011;61975;48.660;10.164;2023-07-29T08:48:58;2.90;;;0.70;;
73675;SDS011;61975;48.660;10.164;2023-07-29T08:51:24;2.28;;;0.70;;
73675;SDS011;61975;48.660;10.164;2023-07-29T08:53:50;3.20;;;0.80;;
73675;SDS011;61975;48.660;10.164;2023-07-29T08:56:16;2.97;;;0.93;;
73675;SDS011;61975;48.660;10.164;2023-07-29T08:58:42;2.53;;;0.80;;
73675;SDS011;61975;48.660;10.164;2023-07-29T09:01:08;3.00;;;0.77;;
73675;SDS011;61975;48.660;10.164;2023-07-29T09:03:33;3.30;;;1.00;;
73675;SDS011;61975;48.660;10.164;2023-07-29T09:05:59;3.67;;;1.20;;
73675;SDS011;61975;48.660;10.164;2023-07-29T09:08:27;2.70;;;0.80;;
73675;SDS011;61975;48.660;10.164;2023-07-29T09:10:53;2.30;;;0.70;;
73675;SDS011;61975;48.660;10.164;2023-07-29T09:13:19;5.65;;;0.90;;
73675;SDS011;61975;48.660;10.164;2023-07-29T09:15:45;2.27;;;0.87;;
73675;SDS011;61975;48.660;10.164;2023-07-29T09:20:37;2.40;;;0.77;;
73675;SDS011;61975;48.660;10.164;2023-07-29T09:23:03;2.60;;;0.73;;
73675;SDS011;61975;48.660;10.164;2023-07-29T09:25:31;4.43;;;1.10;;
73675;SDS011;61975;48.660;10.164;2023-07-29T09:28:00;3.83;;;0.83;;
73675;SDS011;61975;48.660;10.164;2023-07-29T09:30:26;3.92;;;0.98;;
73675;SDS011;61975;48.660;10.164;2023-07-29T09:32:54;2.42;;;0.75;;
73675;SDS011;61975;48.660;10.164;2023-07-29T09:35:21;5.03;;;1.40;;
73675;SDS011;61975;48.660;10.164;2023-07-29T09:37:46;3.23;;;1.20;;
73675;SDS011;61975;48.660;10.164;2023-07-29T09:40:13;2.95;;;1.20;;
73675;SDS011;61975;48.660;10.164;2023-07-29T09:42:40;5.17;;;1.00;;
73675;SDS011;61975;48.660;10.164;2023-07-29T09:45:14;7.72;;;1.45;;
73675;SDS011;61975;48.660;10.164;2023-07-29T09:47:48;3.05;;;1.33;;
73675;SDS011;61975;48.660;10.164;2023-07-29T09:50:13;6.40;;;1.20;;
73675;SDS011;61975;48.660;10.164;2023-07-29T09:52:39;4.23;;;1.20;;
73675;SDS011;61975;48.660;10.164;2023-07-29T09:55:05;3.07;;;1.10;;
73675;SDS011;61975;48.660;10.164;2023-07-29T09:57:31;4.93;;;1.35;;
73675;SDS011;61975;48.660;10.164;2023-07-29T09:59:57;2.80;;;1.17;;
73675;SDS011;61975;48.660;10.164;2023-07-29T10:02:23;2.60;;;1.00;;
73675;SDS011;61975;48.660;10.164;2023-07-29T10:04:50;2.83;;;1.10;;
73675;SDS011;61975;48.660;10.164;2023-07-29T10:07:17;3.17;;;1.20;;
73675;SDS011;61975;48.660;10.164;2023-07-29T10:09:45;3.70;;;1.20;;
73675;SDS011;61975;48.660;10.164;2023-07-29T10:12:11;3.30;;;1.15;;
73675;SDS011;61975;48.660;10.164;2023-07-29T10:14:38;4.30;;;1.47;;
73675;SDS011;61975;48.660;10.164;2023-07-29T10:17:04;4.03;;;1.65;;
73675;SDS011;61975;48.660;10.164;2023-07-29T10:19:30;3.28;;;1.30;;
73675;SDS011;61975;48.660;10.164;2023-07-29T10:21:58;3.67;;;1.20;;
73675;SDS011;61975;48.660;10.164;2023-07-29T10:24:30;3.00;;;1.45;;
73675;SDS011;61975;48.660;10.164;2023-07-29T10:26:59;13.70;;;1.95;;
73675;SDS011;61975;48.660;10.164;2023-07-29T10:29:32;3.50;;;1.40;;
73675;SDS011;61975;48.660;10.164;2023-07-29T10:32:03;3.10;;;1.27;;
73675;SDS011;61975;48.660;10.164;2023-07-29T10:34:30;3.67;;;1.40;;
73675;SDS011;61975;48.660;10.164;2023-07-29T10:36:56;3.95;;;1.40;;
73675;SDS011;61975;48.660;10.164;2023-07-29T10:39:24;3.15;;;1.40;;
73675;SDS011;61975;48.660;10.164;2023-07-29T10:41:56;2.78;;;1.30;;
73675;SDS011;61975;48.660;10.164;2023-07-29T10:47:11;7.10;;;2.00;;
73675;SDS011;61975;48.660;10.164;2023-07-29T10:49:48;4.47;;;1.95;;
73675;SDS011;61975;48.660;10.164;2023-07-29T10:52:29;3.22;;;1.45;;
73675;SDS011;61975;48.660;10.164;2023-07-29T10:55:00;4.28;;;1.50;;
73675;SDS011;61975;48.660;10.164;2023-07-29T10:57:37;3.88;;;1.50;;
73675;SDS011;61975;48.660;10.164;2023-07-29T11:00:06;4.37;;;1.90;;
73675;SDS011;61975;48.660;10.164;2023-07-29T11:02:32;4.20;;;1.42;;
73675;SDS011;61975;48.660;10.164;2023-07-29T11:05:04;3.65;;;1.60;;
73675;SDS011;61975;48.660;10.164;2023-07-29T11:07:32;3.38;;;1.52;;
73675;SDS011;61975;48.660;10.164;2023-07-29T11:10:08;3.10;;;1.60;;
73675;SDS011;61975;48.660;10.164;2023-07-29T11:17:55;3.35;;;1.70;;
73675;SDS011;61975;48.660;10.164;2023-07-29T11:20:22;3.28;;;1.60;;
73675;SDS011;61975;48.660;10.164;2023-07-29T11:22:50;4.68;;;2.10;;
73675;SDS011;61975;48.660;10.164;2023-07-29T11:25:17;3.40;;;1.67;;
73675;SDS011;61975;48.660;10.164;2023-07-29T11:27:43;3.90;;;1.70;;
73675;SDS011;61975;48.660;10.164;2023-07-29T11:30:10;3.50;;;1.70;;
73675;SDS011;61975;48.660;10.164;2023-07-29T11:32:37;5.18;;;1.85;;
73675;SDS011;61975;48.660;10.164;2023-07-29T11:37:32;3.10;;;1.67;;
73675;SDS011;61975;48.660;10.164;2023-07-29T11:39:58;4.30;;;1.73;;
73675;SDS011;61975;48.660;10.164;2023-07-29T11:42:23;4.53;;;1.70;;
73675;SDS011;61975;48.660;10.164;2023-07-29T11:44:49;3.63;;;1.53;;
73675;SDS011;61975;48.660;10.164;2023-07-29T11:47:14;5.47;;;2.00;;
73675;SDS011;61975;48.660;10.164;2023-07-29T11:49:40;3.40;;;1.70;;
73675;SDS011;61975;48.660;10.164;2023-07-29T11:52:06;3.30;;;1.80;;
73675;SDS011;61975;48.660;10.164;2023-07-29T11:54:34;4.72;;;1.80;;
73675;SDS011;61975;48.660;10.164;2023-07-29T11:57:02;3.88;;;1.80;;
73675;SDS011;61975;48.660;10.164;2023-07-29T11:59:30;3.38;;;1.67;;
73675;SDS011;61975;48.660;10.164;2023-07-29T12:01:58;2.90;;;1.47;;
73675;SDS011;61975;48.660;10.164;2023-07-29T12:04:25;4.35;;;1.77;;
73675;SDS011;61975;48.660;10.164;2023-07-29T12:06:51;2.92;;;1.38;;
73675;SDS011;61975;48.660;10.164;2023-07-29T12:09:16;2.30;;;1.00;;
73675;SDS011;61975;48.660;10.164;2023-07-29T12:11:42;2.80;;;1.10;;
73675;SDS011;61975;48.660;10.164;2023-07-29T12:14:09;2.53;;;0.90;;
73675;SDS011;61975;48.660;10.164;2023-07-29T12:16:44;2.75;;;1.02;;
73675;SDS011;61975;48.660;10.164;2023-07-29T12:19:13;2.50;;;1.00;;
73675;SDS011;61975;48.660;10.164;2023-07-29T12:21:42;2.40;;;0.93;;
73675;SDS011;61975;48.660;10.164;2023-07-29T12:24:07;2.80;;;0.90;;
73675;SDS011;61975;48.660;10.164;2023-07-29T12:26:33;2.70;;;1.00;;
73675;SDS011;61975;48.660;10.164;2023-07-29T12:29:10;3.23;;;1.00;;
73675;SDS011;61975;48.660;10.164;2023-07-29T12:31:37;3.05;;;1.20;;
73675;SDS011;61975;48.660;10.164;2023-07-29T12:34:02;2.70;;;1.10;;
73675;SDS011;61975;48.660;10.164;2023-07-29T12:36:41;3.23;;;1.20;;
73675;SDS011;61975;48.660;10.164;2023-07-29T12:41:49;2.85;;;1.40;;
73675;SDS011;61975;48.660;10.164;2023-07-29T12:44:15;4.70;;;1.50;;
73675;SDS011;61975;48.660;10.164;2023-07-29T12:46:41;3.22;;;1.50;;
73675;SDS011;61975;48.660;10.164;2023-07-29T12:49:06;2.97;;;1.30;;
73675;SDS011;61975;48.660;10.164;2023-07-29T12:51:32;2.90;;;1.10;;
73675;SDS011;61975;48.660;10.164;2023-07-29T12:53:57;3.03;;;1.20;;
73675;SDS011;61975;48.660;10.164;2023-07-29T12:56:23;3.10;;;1.40;;
73675;SDS011;61975;48.660;10.164;2023-07-29T12:58:48;2.43;;;1.10;;
73675;SDS011;61975;48.660;10.164;2023-07-29T13:01:14;2.57;;;1.00;;
73675;SDS011;61975;48.660;10.164;2023-07-29T13:03:43;3.05;;;1.20;;
73675;SDS011;61975;48.660;10.164;2023-07-29T13:06:09;3.20;;;1.23;;
73675;SDS011;61975;48.660;10.164;2023-07-29T13:08:34;3.13;;;1.37;;
73675;SDS011;61975;48.660;10.164;2023-07-29T13:10:59;3.10;;;1.70;;
73675;SDS011;61975;48.660;10.164;2023-07-29T13:13:25;3.00;;;1.37;;
73675;SDS011;61975;48.660;10.164;2023-07-29T13:15:50;3.50;;;1.60;;
73675;SDS011;61975;48.660;10.164;2023-07-29T13:18:16;3.88;;;1.80;;
73675;SDS011;61975;48.660;10.164;2023-07-29T13:20:41;3.03;;;1.43;;
73675;SDS011;61975;48.660;10.164;2023-07-29T13:23:07;3.50;;;1.60;;
73675;SDS011;61975;48.660;10.164;2023-07-29T13:25:32;3.13;;;1.37;;
73675;SDS011;61975;48.660;10.164;2023-07-29T13:27:57;3.07;;;1.60;;
73675;SDS011;61975;48.660;10.164;2023-07-29T13:30:23;3.27;;;1.80;;
73675;SDS011;61975;48.660;10.164;2023-07-29T13:32:48;3.70;;;1.87;;
73675;SDS011;61975;48.660;10.164;2023-07-29T13:35:13;3.75;;;1.70;;
73675;SDS011;61975;48.660;10.164;2023-07-29T13:37:39;3.13;;;1.60;;
73675;SDS011;61975;48.660;10.164;2023-07-29T13:40:04;3.37;;;1.50;;
73675;SDS011;61975;48.660;10.164;2023-07-29T13:42:30;4.18;;;1.75;;
73675;SDS011;61975;48.660;10.164;2023-07-29T13:44:55;3.03;;;1.50;;
73675;SDS011;61975;48.660;10.164;2023-07-29T13:47:21;3.23;;;1.60;;
73675;SDS011;61975;48.660;10.164;2023-07-29T13:49:46;4.13;;;1.67;;
73675;SDS011;61975;48.660;10.164;2023-07-29T13:52:12;3.30;;;1.67;;
73675;SDS011;61975;48.660;10.164;2023-07-29T13:54:37;3.45;;;1.80;;
73675;SDS011;61975;48.660;10.164;2023-07-29T13:57:04;4.30;;;1.90;;
73675;SDS011;61975;48.660;10.164;2023-07-29T13:59:29;3.30;;;1.75;;
73675;SDS011;61975;48.660;10.164;2023-07-29T14:01:55;3.13;;;1.50;;
73675;SDS011;61975;48.660;10.164;2023-07-29T14:04:20;4.03;;;1.80;;
73675;SDS011;61975;48.660;10.164;2023-07-29T14:06:45;3.20;;;1.70;;
73675;SDS011;61975;48.660;10.164;2023-07-29T14:09:11;3.17;;;1.60;;
73675;SDS011;61975;48.660;10.164;2023-07-29T14:11:36;3.08;;;1.55;;
73675;SDS011;61975;48.660;10.164;2023-07-29T14:14:01;3.50;;;1.63;;
73675;SDS011;61975;48.660;10.164;2023-07-29T14:16:27;3.80;;;1.63;;
73675;SDS011;61975;48.660;10.164;2023-07-29T14:18:52;3.33;;;1.63;;
73675;SDS011;61975;48.660;10.164;2023-07-29T14:21:17;3.13;;;1.70;;
73675;SDS011;61975;48.660;10.164;2023-07-29T14:23:43;2.90;;;1.50;;
73675;SDS011;61975;48.660;10.164;2023-07-29T14:26:08;3.53;;;1.63;;
73675;SDS011;61975;48.660;10.164;2023-07-29T14:28:35;7.63;;;1.80;;
73675;SDS011;61975;48.660;10.164;2023-07-29T14:31:01;3.20;;;1.58;;
73675;SDS011;61975;48.660;10.164;2023-07-29T14:33:26;4.50;;;1.70;;
73675;SDS011;61975;48.660;10.164;2023-07-29T14:35:51;4.30;;;1.87;;
73675;SDS011;61975;48.660;10.164;2023-07-29T14:38:17;3.90;;;1.80;;
73675;SDS011;61975;48.660;10.164;2023-07-29T14:40:42;3.40;;;1.80;;
73675;SDS011;61975;48.660;10.164;2023-07-29T14:43:08;3.17;;;1.80;;
73675;SDS011;61975;48.660;10.164;2023-07-29T14:45:33;3.27;;;1.67;;
73675;SDS011;61975;48.660;10.164;2023-07-29T14:47:58;3.20;;;1.90;;